sensor_id;sensor_type;location;lat;lon;timestamp;pressure;altitude;pressure_sealevel;temperature;humidity
63115;BME280;49208;50.874;6.466;2023-07-09T06:01:09;100680.78;;;25.09;68.49
63115;BME280;49208;50.874;6.466;2023-07-09T06:03:34;100680.19;;;26.20;65.09
63115;BME280;49208;50.874;6.466;2023-07-09T06:06:00;100673.28;;;27.17;60.46
63115;BME280;49208;50.874;6.466;2023-07-09T06:08:25;100676.47;;;27.93;56.76
63115;BME280;49208;50.874;6.466;2023-07-09T06:11:09;100678.50;;;28.59;54.61
63115;BME280;49208;50.874;6.466;2023-07-09T06:13:35;100676.94;;;29.32;52.28
63115;BME280;49208;50.874;6.466;2023-07-09T06:16:00;100691.47;;;29.90;51.00
63115;BME280;49208;50.874;6.466;2023-07-09T06:18:27;100683.31;;;30.21;49.23
63115;BME280;49208;50.874;6.466;2023-07-09T06:20:57;100679.84;;;30.75;47.23
63115;BME280;49208;50.874;6.466;2023-07-09T06:23:24;100683.81;;;31.04;47.07
63115;BME280;49208;50.874;6.466;2023-07-09T06:25:49;100682.88;;;31.35;46.56
63115;BME280;49208;50.874;6.466;2023-07-09T06:28:18;100684.66;;;31.89;46.26
63115;BME280;49208;50.874;6.466;2023-07-09T06:30:44;100680.41;;;32.16;45.53
63115;BME280;49208;50.874;6.466;2023-07-09T06:33:11;100682.97;;;32.32;44.61
63115;BME280;49208;50.874;6.466;2023-07-09T06:35:37;100683.13;;;32.46;44.14
63115;BME280;49208;50.874;6.466;2023-07-09T06:38:03;100678.56;;;32.68;43.75
63115;BME280;49208;50.874;6.466;2023-07-09T06:40:29;100683.13;;;32.97;42.87
63115;BME280;49208;50.874;6.466;2023-07-09T06:42:54;100690.47;;;33.26;41.77
63115;BME280;49208;50.874;6.466;2023-07-09T06:45:19;100690.03;;;33.72;40.81
63115;BME280;49208;50.874;6.466;2023-07-09T06:47:46;100687.22;;;33.66;40.31
63115;BME280;49208;50.874;6.466;2023-07-09T06:50:12;100694.97;;;33.77;40.78
63115;BME280;49208;50.874;6.466;2023-07-09T06:52:37;100691.00;;;34.14;41.07
63115;BME280;49208;50.874;6.466;2023-07-09T06:55:03;100692.22;;;34.47;40.20
63115;BME280;49208;50.874;6.466;2023-07-09T06:57:28;100692.34;;;34.73;39.49
63115;BME280;49208;50.874;6.466;2023-07-09T06:59:54;100675.81;;;34.87;38.51
63115;BME280;49208;50.874;6.466;2023-07-09T07:02:19;100678.78;;;34.85;38.67
63115;BME280;49208;50.874;6.466;2023-07-09T07:04:45;100692.44;;;35.13;40.17
63115;BME280;49208;50.874;6.466;2023-07-09T07:07:10;100674.22;;;35.32;39.03
63115;BME280;49208;50.874;6.466;2023-07-09T07:09:35;100681.44;;;35.40;37.74
63115;BME280;49208;50.874;6.466;2023-07-09T07:12:01;100682.06;;;35.62;36.67
63115;BME280;49208;50.874;6.466;2023-07-09T07:14:26;100684.00;;;35.95;37.10
63115;BME280;49208;50.874;6.466;2023-07-09T07:16:51;100684.19;;;35.93;37.23
63115;BME280;49208;50.874;6.466;2023-07-09T07:19:17;100679.50;;;35.94;36.53
63115;BME280;49208;50.874;6.466;2023-07-09T07:21:42;100682.03;;;36.09;36.85
63115;BME280;49208;50.874;6.466;2023-07-09T07:24:07;100682.25;;;36.20;36.10
63115;BME280;49208;50.874;6.466;2023-07-09T07:26:33;100681.56;;;36.32;36.99
63115;BME280;49208;50.874;6.466;2023-07-09T07:28:58;100682.38;;;36.46;34.92
63115;BME280;49208;50.874;6.466;2023-07-09T07:31:24;100678.72;;;36.52;34.39
63115;BME280;49208;50.874;6.466;2023-07-09T07:33:50;100680.13;;;36.74;35.46
63115;BME280;49208;50.874;6.466;2023-07-09T07:36:16;100680.66;;;36.90;35.23
63115;BME280;49208;50.874;6.466;2023-07-09T07:38:41;100677.16;;;37.08;34.38
63115;BME280;49208;50.874;6.466;2023-07-09T07:41:07;100674.28;;;37.21;34.42
63115;BME280;49208;50.874;6.466;2023-07-09T07:43:33;100669.00;;;37.19;33.82
63115;BME280;49208;50.874;6.466;2023-07-09T07:45:58;100663.28;;;37.08;33.17
63115;BME280;49208;50.874;6.466;2023-07-09T07:48:23;100669.25;;;37.11;34.81
63115;BME280;49208;50.874;6.466;2023-07-09T07:50:49;100667.91;;;37.20;34.74
63115;BME280;49208;50.874;6.466;2023-07-09T07:53:15;100660.13;;;37.29;34.08
63115;BME280;49208;50.874;6.466;2023-07-09T07:55:41;100667.06;;;37.45;34.41
63115;BME280;49208;50.874;6.466;2023-07-09T07:58:12;100666.63;;;37.48;33.11
63115;BME280;49208;50.874;6.466;2023-07-09T08:00:39;100672.44;;;37.15;34.75
63115;BME280;49208;50.874;6.466;2023-07-09T08:03:04;100667.53;;;36.78;34.02
63115;BME280;49208;50.874;6.466;2023-07-09T08:05:29;100659.03;;;36.67;35.88
63115;BME280;49208;50.874;6.466;2023-07-09T08:07:55;100661.97;;;36.78;35.54
63115;BME280;49208;50.874;6.466;2023-07-09T08:10:20;100656.31;;;36.53;35.82
63115;BME280;49208;50.874;6.466;2023-07-09T08:12:46;100654.25;;;36.35;35.95
63115;BME280;49208;50.874;6.466;2023-07-09T08:15:11;100660.78;;;36.54;37.08
63115;BME280;49208;50.874;6.466;2023-07-09T08:17:37;100656.78;;;36.44;35.66
63115;BME280;49208;50.874;6.466;2023-07-09T08:20:02;100659.19;;;36.27;35.57
63115;BME280;49208;50.874;6.466;2023-07-09T08:22:28;100663.44;;;36.29;36.97
63115;BME280;49208;50.874;6.466;2023-07-09T08:24:53;100663.03;;;36.32;37.92
63115;BME280;49208;50.874;6.466;2023-07-09T08:27:19;100666.25;;;36.02;36.29
63115;BME280;49208;50.874;6.466;2023-07-09T08:29:46;100658.38;;;36.06;37.25
63115;BME280;49208;50.874;6.466;2023-07-09T08:32:12;100651.78;;;36.00;38.64
63115;BME280;49208;50.874;6.466;2023-07-09T08:34:38;100658.19;;;36.01;36.58
63115;BME280;49208;50.874;6.466;2023-07-09T08:37:03;100653.94;;;35.92;36.97
63115;BME280;49208;50.874;6.466;2023-07-09T08:39:28;100655.22;;;35.89;37.26
63115;BME280;49208;50.874;6.466;2023-07-09T08:42:04;100657.34;;;35.87;38.38
63115;BME280;49208;50.874;6.466;2023-07-09T08:47:16;100653.91;;;35.98;37.80
63115;BME280;49208;50.874;6.466;2023-07-09T08:49:49;100645.34;;;36.07;35.37
63115;BME280;49208;50.874;6.466;2023-07-09T08:52:28;100640.28;;;35.97;36.02
63115;BME280;49208;50.874;6.466;2023-07-09T08:54:57;100642.81;;;35.98;36.30
63115;BME280;49208;50.874;6.466;2023-07-09T08:57:29;100632.41;;;35.94;35.91
63115;BME280;49208;50.874;6.466;2023-07-09T09:00:14;100630.63;;;36.13;37.69
63115;BME280;49208;50.874;6.466;2023-07-09T09:05:11;100620.84;;;36.10;36.01
63115;BME280;49208;50.874;6.466;2023-07-09T09:07:44;100621.47;;;36.19;37.13
63115;BME280;49208;50.874;6.466;2023-07-09T09:10:18;100615.00;;;36.38;36.87
63115;BME280;49208;50.874;6.466;2023-07-09T09:13:08;100607.97;;;36.36;35.71
63115;BME280;49208;50.874;6.466;2023-07-09T09:15:40;100610.09;;;36.34;34.41
63115;BME280;49208;50.874;6.466;2023-07-09T09:18:19;100605.38;;;36.41;35.12
63115;BME280;49208;50.874;6.466;2023-07-09T09:20:48;100606.19;;;36.48;34.80
63115;BME280;49208;50.874;6.466;2023-07-09T09:23:15;100603.88;;;36.45;33.65
63115;BME280;49208;50.874;6.466;2023-07-09T09:25:52;100603.19;;;36.63;34.53
63115;BME280;49208;50.874;6.466;2023-07-09T09:28:19;100600.56;;;36.68;33.64
63115;BME280;49208;50.874;6.466;2023-07-09T09:30:44;100604.69;;;36.52;29.99
63115;BME280;49208;50.874;6.466;2023-07-09T09:33:11;100606.19;;;36.55;31.28
63115;BME280;49208;50.874;6.466;2023-07-09T09:35:41;100604.66;;;36.66;30.00
63115;BME280;49208;50.874;6.466;2023-07-09T09:38:15;100602.09;;;36.64;29.12
63115;BME280;49208;50.874;6.466;2023-07-09T09:40:41;100591.00;;;36.57;28.22
63115;BME280;49208;50.874;6.466;2023-07-09T09:43:19;100575.69;;;36.48;29.05
63115;BME280;49208;50.874;6.466;2023-07-09T09:45:48;100587.16;;;36.65;30.84
63115;BME280;49208;50.874;6.466;2023-07-09T09:48:34;100591.09;;;36.83;30.98
63115;BME280;49208;50.874;6.466;2023-07-09T09:51:03;100590.31;;;37.00;29.90
63115;BME280;49208;50.874;6.466;2023-07-09T09:53:36;100587.94;;;37.29;30.78
63115;BME280;49208;50.874;6.466;2023-07-09T09:56:05;100582.84;;;37.51;28.30
63115;BME280;49208;50.874;6.466;2023-07-09T09:58:31;100579.72;;;37.66;28.65
63115;BME280;49208;50.874;6.466;2023-07-09T10:00:58;100581.13;;;37.75;29.94
63115;BME280;49208;50.874;6.466;2023-07-09T10:03:36;100574.63;;;38.00;30.21
63115;BME280;49208;50.874;6.466;2023-07-09T10:06:17;100575.91;;;38.04;28.98
63115;BME280;49208;50.874;6.466;2023-07-09T10:14:45;100590.69;;;37.79;28.88
63115;BME280;49208;50.874;6.466;2023-07-09T10:17:28;100583.50;;;37.72;27.64
63115;BME280;49208;50.874;6.466;2023-07-09T10:26:12;100587.97;;;37.91;27.26
63115;BME280;49208;50.874;6.466;2023-07-09T10:29:03;100591.16;;;37.95;29.47
63115;BME280;49208;50.874;6.466;2023-07-09T10:31:50;100592.09;;;38.07;26.61
63115;BME280;49208;50.874;6.466;2023-07-09T10:37:21;100592.88;;;37.96;27.89
63115;BME280;49208;50.874;6.466;2023-07-09T10:39:51;100596.34;;;38.10;28.76
63115;BME280;49208;50.874;6.466;2023-07-09T10:44:57;100583.66;;;38.14;26.69
63115;BME280;49208;50.874;6.466;2023-07-09T10:47:33;100578.88;;;38.03;26.99
63115;BME280;49208;50.874;6.466;2023-07-09T10:50:02;100575.69;;;37.99;26.42
63115;BME280;49208;50.874;6.466;2023-07-09T10:52:33;100581.22;;;38.06;25.22
63115;BME280;49208;50.874;6.466;2023-07-09T10:55:07;100570.16;;;38.17;25.84
63115;BME280;49208;50.874;6.466;2023-07-09T10:57:57;100567.50;;;38.22;24.60
63115;BME280;49208;50.874;6.466;2023-07-09T11:00:44;100571.38;;;38.21;24.24
63115;BME280;49208;50.874;6.466;2023-07-09T11:03:19;100563.22;;;38.08;23.46
63115;BME280;49208;50.874;6.466;2023-07-09T11:05:48;100556.44;;;38.04;23.31
63115;BME280;49208;50.874;6.466;2023-07-09T11:08:29;100555.84;;;37.95;24.82
63115;BME280;49208;50.874;6.466;2023-07-09T11:11:03;100551.50;;;37.88;24.38
63115;BME280;49208;50.874;6.466;2023-07-09T11:13:37;100551.84;;;37.91;25.21
63115;BME280;49208;50.874;6.466;2023-07-09T11:16:05;100553.56;;;37.92;24.13
63115;BME280;49208;50.874;6.466;2023-07-09T11:18:34;100557.88;;;37.88;24.89
63115;BME280;49208;50.874;6.466;2023-07-09T11:23:37;100550.59;;;37.50;25.18
63115;BME280;49208;50.874;6.466;2023-07-09T11:26:14;100541.94;;;37.40;26.23
63115;BME280;49208;50.874;6.466;2023-07-09T11:28:51;100550.50;;;37.38;26.62
63115;BME280;49208;50.874;6.466;2023-07-09T11:31:24;100539.38;;;37.38;26.34
63115;BME280;49208;50.874;6.466;2023-07-09T11:36:58;100546.56;;;37.28;26.99
63115;BME280;49208;50.874;6.466;2023-07-09T11:39:29;100543.16;;;37.26;26.09
63115;BME280;49208;50.874;6.466;2023-07-09T11:41:56;100546.31;;;37.29;26.20
63115;BME280;49208;50.874;6.466;2023-07-09T11:44:24;100546.34;;;37.48;26.08
63115;BME280;49208;50.874;6.466;2023-07-09T11:47:28;100544.78;;;37.52;24.53
63115;BME280;49208;50.874;6.466;2023-07-09T11:50:06;100552.47;;;37.56;25.28
63115;BME280;49208;50.874;6.466;2023-07-09T11:52:42;100552.25;;;37.58;26.21
63115;BME280;49208;50.874;6.466;2023-07-09T11:57:57;100554.09;;;37.83;25.99
63115;BME280;49208;50.874;6.466;2023-07-09T12:00:22;100553.69;;;37.97;25.08
63115;BME280;49208;50.874;6.466;2023-07-09T12:02:49;100547.53;;;38.14;26.07
63115;BME280;49208;50.874;6.466;2023-07-09T12:05:19;100539.38;;;38.31;25.31
63115;BME280;49208;50.874;6.466;2023-07-09T12:07:46;100539.66;;;38.41;24.47
63115;BME280;49208;50.874;6.466;2023-07-09T12:10:19;100532.41;;;38.40;24.74
63115;BME280;49208;50.874;6.466;2023-07-09T12:12:45;100522.84;;;38.36;24.06
63115;BME280;49208;50.874;6.466;2023-07-09T12:15:24;100522.19;;;38.22;24.79
63115;BME280;49208;50.874;6.466;2023-07-09T12:17:57;100518.16;;;38.06;25.94
63115;BME280;49208;50.874;6.466;2023-07-09T12:20:24;100504.47;;;37.86;24.76
63115;BME280;49208;50.874;6.466;2023-07-09T12:22:49;100500.13;;;37.53;25.75
63115;BME280;49208;50.874;6.466;2023-07-09T12:25:23;100509.53;;;37.34;27.12
63115;BME280;49208;50.874;6.466;2023-07-09T12:27:50;100503.81;;;37.04;25.57
63115;BME280;49208;50.874;6.466;2023-07-09T12:30:16;100505.75;;;36.78;27.65
63115;BME280;49208;50.874;6.466;2023-07-09T12:32:49;100495.00;;;36.56;26.77
63115;BME280;49208;50.874;6.466;2023-07-09T12:35:16;100489.84;;;36.35;28.13
63115;BME280;49208;50.874;6.466;2023-07-09T12:37:43;100483.56;;;36.14;27.74
63115;BME280;49208;50.874;6.466;2023-07-09T12:40:30;100484.72;;;35.93;29.55
63115;BME280;49208;50.874;6.466;2023-07-09T12:43:00;100479.47;;;35.78;29.01
63115;BME280;49208;50.874;6.466;2023-07-09T12:45:27;100486.34;;;35.56;27.73
63115;BME280;49208;50.874;6.466;2023-07-09T12:47:53;100484.25;;;35.38;28.36
63115;BME280;49208;50.874;6.466;2023-07-09T12:50:27;100502.81;;;35.24;29.54
63115;BME280;49208;50.874;6.466;2023-07-09T12:52:55;100495.13;;;35.06;28.48
63115;BME280;49208;50.874;6.466;2023-07-09T12:55:25;100493.25;;;34.87;30.38
63115;BME280;49208;50.874;6.466;2023-07-09T12:57:51;100477.50;;;34.67;30.18
63115;BME280;49208;50.874;6.466;2023-07-09T13:00:17;100492.78;;;34.50;30.25
63115;BME280;49208;50.874;6.466;2023-07-09T13:02:43;100490.84;;;34.37;30.93
63115;BME280;49208;50.874;6.466;2023-07-09T13:05:20;100491.88;;;34.22;30.69
63115;BME280;49208;50.874;6.466;2023-07-09T13:07:50;100491.41;;;34.12;31.67
63115;BME280;49208;50.874;6.466;2023-07-09T13:10:25;100484.78;;;34.07;31.01
63115;BME280;49208;50.874;6.466;2023-07-09T13:12:57;100501.78;;;34.04;31.22
63115;BME280;49208;50.874;6.466;2023-07-09T13:15:47;100546.34;;;33.94;31.03
63115;BME280;49208;50.874;6.466;2023-07-09T13:18:14;100540.91;;;33.66;36.18
63115;BME280;49208;50.874;6.466;2023-07-09T13:20:42;100534.53;;;33.37;37.55
63115;BME280;49208;50.874;6.466;2023-07-09T13:23:12;100530.06;;;33.08;37.90
63115;BME280;49208;50.874;6.466;2023-07-09T13:25:39;100522.81;;;32.78;40.67
63115;BME280;49208;50.874;6.466;2023-07-09T13:28:04;100525.59;;;32.57;40.58
63115;BME280;49208;50.874;6.466;2023-07-09T13:30:29;100516.53;;;32.27;39.06
63115;BME280;49208;50.874;6.466;2023-07-09T13:32:57;100520.50;;;32.03;39.52
63115;BME280;49208;50.874;6.466;2023-07-09T13:35:22;100522.50;;;31.79;40.24
63115;BME280;49208;50.874;6.466;2023-07-09T13:37:47;100526.59;;;31.68;41.13
63115;BME280;49208;50.874;6.466;2023-07-09T13:40:14;100531.44;;;31.51;41.80
63115;BME280;49208;50.874;6.466;2023-07-09T13:42:42;100533.41;;;31.28;42.56
63115;BME280;49208;50.874;6.466;2023-07-09T13:45:28;100550.31;;;31.01;44.33
63115;BME280;49208;50.874;6.466;2023-07-09T13:47:53;100560.25;;;30.79;44.61
63115;BME280;49208;50.874;6.466;2023-07-09T13:50:19;100583.13;;;30.57;44.50
63115;BME280;49208;50.874;6.466;2023-07-09T13:52:45;100611.56;;;30.33;44.38
63115;BME280;49208;50.874;6.466;2023-07-09T13:55:22;100605.00;;;29.94;46.55
63115;BME280;49208;50.874;6.466;2023-07-09T13:57:50;100639.03;;;29.60;48.98
63115;BME280;49208;50.874;6.466;2023-07-09T14:00:16;100643.69;;;29.19;49.26
63115;BME280;49208;50.874;6.466;2023-07-09T14:02:43;100627.03;;;28.79;52.52
63115;BME280;49208;50.874;6.466;2023-07-09T14:05:09;100618.66;;;28.38;54.96
63115;BME280;49208;50.874;6.466;2023-07-09T14:07:37;100659.88;;;27.94;58.15
63115;BME280;49208;50.874;6.466;2023-07-09T14:10:10;100745.97;;;27.64;61.14
63115;BME280;49208;50.874;6.466;2023-07-09T14:12:46;100770.72;;;27.09;66.39
63115;BME280;49208;50.874;6.466;2023-07-09T14:15:15;100773.16;;;26.56;71.31
63115;BME280;49208;50.874;6.466;2023-07-09T14:17:41;100790.81;;;26.15;76.64
63115;BME280;49208;50.874;6.466;2023-07-09T14:20:17;100772.78;;;25.55;79.22
63115;BME280;49208;50.874;6.466;2023-07-09T14:22:43;100759.78;;;25.09;81.96
63115;BME280;49208;50.874;6.466;2023-07-09T14:25:24;100782.47;;;24.69;85.28
63115;BME280;49208;50.874;6.466;2023-07-09T14:27:51;100810.56;;;24.38;87.66
63115;BME280;49208;50.874;6.466;2023-07-09T14:30:19;100830.19;;;24.21;89.28
63115;BME280;49208;50.874;6.466;2023-07-09T14:32:47;100835.00;;;24.08;91.50
63115;BME280;49208;50.874;6.466;2023-07-09T14:35:17;100846.13;;;24.05;91.15
63115;BME280;49208;50.874;6.466;2023-07-09T14:37:44;100855.28;;;24.04;92.29
63115;BME280;49208;50.874;6.466;2023-07-09T14:40:10;100880.91;;;24.01;92.27
63115;BME280;49208;50.874;6.466;2023-07-09T14:42:38;100874.00;;;23.97;92.66
63115;BME280;49208;50.874;6.466;2023-07-09T14:45:06;100878.69;;;23.95;94.05
63115;BME280;49208;50.874;6.466;2023-07-09T14:47:41;100865.69;;;23.98;95.51
63115;BME280;49208;50.874;6.466;2023-07-09T14:50:07;100857.28;;;24.02;96.27
63115;BME280;49208;50.874;6.466;2023-07-09T14:52:32;100846.13;;;24.05;96.91
63115;BME280;49208;50.874;6.466;2023-07-09T14:54:58;100843.00;;;24.09;97.31
63115;BME280;49208;50.874;6.466;2023-07-09T14:57:25;100847.16;;;24.13;96.36
63115;BME280;49208;50.874;6.466;2023-07-09T14:59:52;100832.84;;;24.11;97.78
63115;BME280;49208;50.874;6.466;2023-07-09T15:02:34;100831.75;;;24.14;97.35
63115;BME280;49208;50.874;6.466;2023-07-09T15:05:01;100825.41;;;24.13;97.46
63115;BME280;49208;50.874;6.466;2023-07-09T15:07:27;100826.31;;;24.14;97.92
63115;BME280;49208;50.874;6.466;2023-07-09T15:09:56;100814.94;;;24.09;98.38
63115;BME280;49208;50.874;6.466;2023-07-09T15:12:27;100803.94;;;24.10;98.31
63115;BME280;49208;50.874;6.466;2023-07-09T15:15:06;100789.72;;;24.07;97.68
63115;BME280;49208;50.874;6.466;2023-07-09T15:17:36;100785.84;;;23.99;97.07
63115;BME280;49208;50.874;6.466;2023-07-09T15:20:02;100781.97;;;24.02;96.70
63115;BME280;49208;50.874;6.466;2023-07-09T15:22:32;100779.25;;;24.02;98.21
63115;BME280;49208;50.874;6.466;2023-07-09T15:24:58;100751.94;;;24.04;97.78
63115;BME280;49208;50.874;6.466;2023-07-09T15:27:24;100751.41;;;24.10;97.48
63115;BME280;49208;50.874;6.466;2023-07-09T15:29:50;100732.22;;;24.11;97.67
63115;BME280;49208;50.874;6.466;2023-07-09T15:32:15;100728.69;;;24.20;97.05
63115;BME280;49208;50.874;6.466;2023-07-09T15:34:41;100711.09;;;24.25;98.96
63115;BME280;49208;50.874;6.466;2023-07-09T15:37:16;100687.50;;;24.35;98.22
63115;BME280;49208;50.874;6.466;2023-07-09T15:39:42;100691.69;;;24.39;96.69
63115;BME280;49208;50.874;6.466;2023-07-09T15:42:12;100667.31;;;24.37;95.82
63115;BME280;49208;50.874;6.466;2023-07-09T15:44:39;100668.91;;;24.40;94.87
63115;BME280;49208;50.874;6.466;2023-07-09T15:47:04;100666.91;;;24.42;94.74
63115;BME280;49208;50.874;6.466;2023-07-09T15:49:31;100641.69;;;24.40;94.88
63115;BME280;49208;50.874;6.466;2023-07-09T15:51:57;100631.69;;;24.40;95.41
63115;BME280;49208;50.874;6.466;2023-07-09T15:54:23;100621.66;;;24.41;94.78
63115;BME280;49208;50.874;6.466;2023-07-09T15:56:51;100606.19;;;24.41;94.49
63115;BME280;49208;50.874;6.466;2023-07-09T15:59:25;100598.16;;;24.40;94.26
63115;BME280;49208;50.874;6.466;2023-07-09T16:01:52;100571.38;;;24.35;94.12
63115;BME280;49208;50.874;6.466;2023-07-09T16:04:17;100555.03;;;24.26;93.47
63115;BME280;49208;50.874;6.466;2023-07-09T16:06:43;100552.16;;;24.27;92.83
63115;BME280;49208;50.874;6.466;2023-07-09T16:09:08;100553.75;;;24.30;92.31
63115;BME280;49208;50.874;6.466;2023-07-09T16:11:35;100553.59;;;24.31;93.22
63115;BME280;49208;50.874;6.466;2023-07-09T16:14:07;100568.66;;;24.35;94.46
63115;BME280;49208;50.874;6.466;2023-07-09T16:16:39;100589.13;;;24.39;93.30
63115;BME280;49208;50.874;6.466;2023-07-09T16:19:04;100599.31;;;24.47;95.14
63115;BME280;49208;50.874;6.466;2023-07-09T16:21:31;100602.06;;;24.57;92.35
63115;BME280;49208;50.874;6.466;2023-07-09T16:23:58;100586.47;;;24.69;91.44
63115;BME280;49208;50.874;6.466;2023-07-09T16:26:25;100588.50;;;24.76;91.14
63115;BME280;49208;50.874;6.466;2023-07-09T16:28:51;100602.84;;;24.88;91.07
63115;BME280;49208;50.874;6.466;2023-07-09T16:31:17;100625.91;;;25.04;91.62
63115;BME280;49208;50.874;6.466;2023-07-09T16:33:42;100637.06;;;25.10;91.27
63115;BME280;49208;50.874;6.466;2023-07-09T16:36:15;100658.28;;;25.16;90.91
63115;BME280;49208;50.874;6.466;2023-07-09T16:38:41;100662.31;;;25.12;88.53
63115;BME280;49208;50.874;6.466;2023-07-09T16:41:10;100658.41;;;25.15;88.87
63115;BME280;49208;50.874;6.466;2023-07-09T16:43:38;100663.88;;;25.15;89.51
63115;BME280;49208;50.874;6.466;2023-07-09T16:46:12;100684.38;;;25.19;90.76
63115;BME280;49208;50.874;6.466;2023-07-09T16:48:39;100676.69;;;25.34;90.04
63115;BME280;49208;50.874;6.466;2023-07-09T16:51:05;100679.97;;;25.37;89.52
63115;BME280;49208;50.874;6.466;2023-07-09T16:53:30;100704.94;;;25.43;89.78
63115;BME280;49208;50.874;6.466;2023-07-09T16:55:55;100689.84;;;25.48;89.91
63115;BME280;49208;50.874;6.466;2023-07-09T16:58:30;100686.69;;;25.43;89.35
63115;BME280;49208;50.874;6.466;2023-07-09T17:00:57;100704.66;;;25.36;87.35
63115;BME280;49208;50.874;6.466;2023-07-09T17:03:23;100689.88;;;25.38;88.27
63115;BME280;49208;50.874;6.466;2023-07-09T17:05:49;100710.50;;;25.41;88.53
63115;BME280;49208;50.874;6.466;2023-07-09T17:08:14;100707.22;;;25.47;87.77
63115;BME280;49208;50.874;6.466;2023-07-09T17:10:41;100717.66;;;25.52;87.69
63115;BME280;49208;50.874;6.466;2023-07-09T17:13:27;100703.31;;;25.50;86.26
63115;BME280;49208;50.874;6.466;2023-07-09T17:15:53;100709.22;;;25.55;87.25
63115;BME280;49208;50.874;6.466;2023-07-09T17:18:20;100705.19;;;25.59;86.36
63115;BME280;49208;50.874;6.466;2023-07-09T17:20:48;100707.03;;;25.58;87.50
63115;BME280;49208;50.874;6.466;2023-07-09T17:23:14;100716.22;;;25.67;85.68
63115;BME280;49208;50.874;6.466;2023-07-09T17:25:40;100721.97;;;25.64;85.64
63115;BME280;49208;50.874;6.466;2023-07-09T17:30:37;100714.78;;;25.73;86.24
63115;BME280;49208;50.874;6.466;2023-07-09T17:33:02;100716.63;;;25.82;85.97
63115;BME280;49208;50.874;6.466;2023-07-09T17:35:28;100706.88;;;25.89;84.10
63115;BME280;49208;50.874;6.466;2023-07-09T17:37:55;100698.41;;;25.92;81.58
63115;BME280;49208;50.874;6.466;2023-07-09T17:40:35;100696.09;;;25.97;82.64
63115;BME280;49208;50.874;6.466;2023-07-09T17:43:02;100691.66;;;25.96;81.05
63115;BME280;49208;50.874;6.466;2023-07-09T17:45:29;100697.09;;;25.96;80.08
63115;BME280;49208;50.874;6.466;2023-07-09T17:47:55;100701.56;;;25.78;79.00
63115;BME280;49208;50.874;6.466;2023-07-09T17:50:23;100707.88;;;25.69;79.20
63115;BME280;49208;50.874;6.466;2023-07-09T17:52:51;100696.13;;;25.58;80.66
63115;BME280;49208;50.874;6.466;2023-07-09T17:55:18;100689.25;;;25.54;81.26
63115;BME280;49208;50.874;6.466;2023-07-09T17:57:48;100689.44;;;25.53;81.29
63115;BME280;49208;50.874;6.466;2023-07-09T18:00:21;100683.09;;;25.52;81.77
63115;BME280;49208;50.874;6.466;2023-07-09T18:02:53;100688.13;;;25.47;81.96
63115;BME280;49208;50.874;6.466;2023-07-09T18:05:26;100676.50;;;25.35;83.31
63115;BME280;49208;50.874;6.466;2023-07-09T18:07:53;100682.84;;;25.26;84.35
63115;BME280;49208;50.874;6.466;2023-07-09T18:10:18;100690.97;;;25.16;85.19
63115;BME280;49208;50.874;6.466;2023-07-09T18:12:44;100688.53;;;25.04;84.76
63115;BME280;49208;50.874;6.466;2023-07-09T18:15:17;100678.91;;;24.90;87.21
63115;BME280;49208;50.874;6.466;2023-07-09T18:17:43;100674.19;;;24.82;86.05
63115;BME280;49208;50.874;6.466;2023-07-09T18:20:21;100677.88;;;24.71;85.97
63115;BME280;49208;50.874;6.466;2023-07-09T18:22:46;100677.03;;;24.71;85.76
63115;BME280;49208;50.874;6.466;2023-07-09T18:25:12;100676.03;;;24.72;88.00
63115;BME280;49208;50.874;6.466;2023-07-09T18:27:40;100679.75;;;24.71;90.03
63115;BME280;49208;50.874;6.466;2023-07-09T18:32:44;100666.84;;;24.63;91.74
63115;BME280;49208;50.874;6.466;2023-07-09T18:35:32;100662.66;;;24.59;92.18
63115;BME280;49208;50.874;6.466;2023-07-09T18:38:09;100666.84;;;24.53;91.21
63115;BME280;49208;50.874;6.466;2023-07-09T18:40:41;100665.50;;;24.48;90.54
63115;BME280;49208;50.874;6.466;2023-07-09T18:43:11;100658.00;;;24.40;92.06
63115;BME280;49208;50.874;6.466;2023-07-09T18:45:37;100656.56;;;24.36;91.72
63115;BME280;49208;50.874;6.466;2023-07-09T18:48:18;100655.41;;;24.29;91.20
63115;BME280;49208;50.874;6.466;2023-07-09T18:50:46;100658.69;;;24.23;90.98
63115;BME280;49208;50.874;6.466;2023-07-09T18:53:13;100670.13;;;24.16;91.75
63115;BME280;49208;50.874;6.466;2023-07-09T18:55:39;100673.25;;;24.12;92.14
63115;BME280;49208;50.874;6.466;2023-07-09T18:58:11;100672.53;;;24.10;93.97
63115;BME280;49208;50.874;6.466;2023-07-09T19:00:36;100669.22;;;24.06;92.91
63115;BME280;49208;50.874;6.466;2023-07-09T19:03:03;100668.91;;;23.99;94.50
63115;BME280;49208;50.874;6.466;2023-07-09T19:05:28;100672.88;;;23.95;94.22
63115;BME280;49208;50.874;6.466;2023-07-09T19:07:56;100680.44;;;23.92;94.75
63115;BME280;49208;50.874;6.466;2023-07-09T19:10:27;100689.03;;;23.87;95.92
63115;BME280;49208;50.874;6.466;2023-07-09T19:12:58;100692.28;;;23.81;95.74
63115;BME280;49208;50.874;6.466;2023-07-09T19:15:24;100689.97;;;23.76;98.15
63115;BME280;49208;50.874;6.466;2023-07-09T19:17:50;100694.03;;;23.71;98.32
63115;BME280;49208;50.874;6.466;2023-07-09T19:20:22;100687.16;;;23.67;98.72
63115;BME280;49208;50.874;6.466;2023-07-09T19:22:49;100689.41;;;23.62;99.06
63115;BME280;49208;50.874;6.466;2023-07-09T19:25:18;100688.09;;;23.56;98.23
63115;BME280;49208;50.874;6.466;2023-07-09T19:27:44;100684.16;;;23.49;98.14
63115;BME280;49208;50.874;6.466;2023-07-09T19:30:11;100685.69;;;23.42;98.09
63115;BME280;49208;50.874;6.466;2023-07-09T19:32:37;100685.22;;;23.36;98.12
63115;BME280;49208;50.874;6.466;2023-07-09T19:35:03;100681.31;;;23.29;98.88
63115;BME280;49208;50.874;6.466;2023-07-09T19:37:29;100678.25;;;23.23;99.58